Time;durP1;ratioP1;P1;durP2;ratioP2;P2;SDS_P1;SDS_P2;PMS_P1;PMS_P2;Temp;Humidity;BMP_temperature;BMP_pressure;BME280_temperature;BME280_humidity;BME280_pressure;Samples;Min_cycle;Max_cycle;Signal;HPM_P1;HPM_P2
2022/04/08 00:01:55;;;;;;;;;;;;;;;4.96;94.49;99789.25;5031701;28;20018;-69
2022/04/08 00:04:21;;;;;;;;;;;;;;;4.98;94.50;99790.22;5030575;28;19917;-69
2022/04/08 00:06:46;;;;;;;;;;;;;;;5.00;94.65;99792.78;5033843;28;19918;-69
2022/04/08 00:09:11;;;;;;;;;;;;;;;5.04;93.96;99792.09;5029132;28;19928;-69
2022/04/08 00:11:37;;;;;;;;;;;;;;;5.09;94.79;99793.06;5011113;28;19991;-70
2022/04/08 00:14:04;;;;;;;;;;;;;;;5.15;93.79;99794.97;5029254;28;19931;-71
2022/04/08 00:16:29;;;;;;;;;;;;;;;5.14;93.73;99805.97;5030255;28;19917;-70
2022/04/08 00:18:55;;;;;;;;;;;;;;;5.19;93.70;99812.97;5033289;28;19967;-69
2022/04/08 00:21:20;;;;;;;;;;;;;;;5.21;92.75;99811.31;5036425;28;20404;-69
2022/04/08 00:23:45;;;;;;;;;;;;;;;5.24;93.21;99828.41;5031083;28;19972;-69
2022/04/08 00:26:11;;;;;;;;;;;;;;;5.25;92.39;99831.00;5060236;28;20384;-69
2022/04/08 00:28:36;;;;;;;;;;;;;;;5.26;92.16;99836.97;5033332;28;19983;-69
2022/04/08 00:31:02;;;;;;;;;;;;;;;5.27;91.62;99831.91;5028302;28;20351;-69
2022/04/08 00:33:29;;;;;;;;;;;;;;;5.26;91.64;99829.31;5059048;28;20074;-69
2022/04/08 00:35:54;;;;;;;;;;;;;;;5.27;91.53;99831.91;5031829;28;19975;-70
2022/04/08 00:38:20;;;;;;;;;;;;;;;5.25;91.20;99846.28;5032371;28;19933;-71
2022/04/08 00:40:45;;;;;;;;;;;;;;;5.23;90.59;99850.47;5032851;28;20031;-70
2022/04/08 00:43:11;;;;;;;;;;;;;;;5.21;90.71;99841.91;5033641;28;19929;-70
2022/04/08 00:45:36;;;;;;;;;;;;;;;5.17;91.04;99841.78;5057957;28;19929;-70
2022/04/08 00:48:06;;;;;;;;;;;;;;;5.11;91.13;99847.53;5027362;28;20270;-70
2022/04/08 00:50:31;;;;;;;;;;;;;;;5.11;90.42;99860.28;5029897;28;20293;-70
2022/04/08 00:52:58;;;;;;;;;;;;;;;5.10;90.92;99856.84;5036777;28;19928;-69
2022/04/08 00:55:23;;;;;;;;;;;;;;;5.11;91.01;99867.91;5031038;28;19979;-70
2022/04/08 00:57:49;;;;;;;;;;;;;;;5.05;90.84;99868.56;5028366;28;20346;-70
2022/04/08 01:00:14;;;;;;;;;;;;;;;4.98;89.95;99878.50;5025631;28;20040;-70
2022/04/08 01:02:40;;;;;;;;;;;;;;;4.87;90.74;99883.22;5028509;28;19990;-70
2022/04/08 01:05:06;;;;;;;;;;;;;;;4.80;91.32;99877.06;5032354;28;19925;-71
2022/04/08 01:07:31;;;;;;;;;;;;;;;4.77;90.97;99887.13;5041779;28;19929;-70
2022/04/08 01:09:57;;;;;;;;;;;;;;;4.75;91.63;99887.88;5030812;28;19940;-70
2022/04/08 01:12:23;;;;;;;;;;;;;;;4.77;91.42;99893.88;5032383;28;19921;-70
2022/04/08 01:14:55;;;;;;;;;;;;;;;4.79;91.53;99898.25;5031944;28;19943;-70
2022/04/08 01:17:20;;;;;;;;;;;;;;;4.83;91.05;99896.66;5029581;28;19968;-70
2022/04/08 01:19:45;;;;;;;;;;;;;;;4.86;90.38;99901.00;5033243;28;19967;-69
2022/04/08 01:22:11;;;;;;;;;;;;;;;4.80;90.46;99899.97;5026736;28;19921;-70
2022/04/08 01:24:38;;;;;;;;;;;;;;;4.72;91.87;99898.81;5028922;28;19929;-69
2022/04/08 01:27:04;;;;;;;;;;;;;;;4.73;92.57;99907.31;5030537;28;19917;-70
2022/04/08 01:29:29;;;;;;;;;;;;;;;4.80;92.41;99907.63;5030871;28;19921;-71
2022/04/08 01:31:54;;;;;;;;;;;;;;;4.73;94.11;99923.50;5032822;28;19921;-71
2022/04/08 01:34:19;;;;;;;;;;;;;;;4.67;95.39;99927.47;5028426;28;19933;-70
2022/04/08 01:36:45;;;;;;;;;;;;;;;4.53;94.90;99925.28;5029759;28;19939;-71
2022/04/08 01:39:10;;;;;;;;;;;;;;;4.30;96.10;99926.09;5033798;28;19929;-69
2022/04/08 01:41:35;;;;;;;;;;;;;;;4.18;96.75;99920.53;5032936;28;19964;-70
2022/04/08 01:44:00;;;;;;;;;;;;;;;4.10;96.78;99929.56;5016747;28;20019;-70
2022/04/08 01:46:26;;;;;;;;;;;;;;;4.03;98.07;99925.91;5031276;28;20404;-71
2022/04/08 01:48:54;;;;;;;;;;;;;;;4.00;98.40;99929.22;5030594;28;20535;-69
2022/04/08 01:51:20;;;;;;;;;;;;;;;3.99;97.78;99930.00;5033062;28;20012;-70
2022/04/08 01:53:45;;;;;;;;;;;;;;;3.96;98.65;99924.81;5033440;28;20067;-69
2022/04/08 01:56:11;;;;;;;;;;;;;;;3.99;97.23;99929.13;5029562;28;19935;-70
2022/04/08 01:58:36;;;;;;;;;;;;;;;3.96;98.28;99929.03;5030926;28;19925;-70
2022/04/08 02:01:02;;;;;;;;;;;;;;;3.89;98.44;99924.50;5031062;28;19934;-70
2022/04/08 02:03:27;;;;;;;;;;;;;;;3.89;99.13;99935.56;5028976;28;19928;-70
2022/04/08 02:05:53;;;;;;;;;;;;;;;3.90;98.68;99944.06;5027771;28;19924;-70
2022/04/08 02:08:18;;;;;;;;;;;;;;;3.98;98.83;99963.00;5026817;28;19916;-70
2022/04/08 02:10:43;;;;;;;;;;;;;;;4.03;97.24;99962.41;5054619;28;19948;-69
2022/04/08 02:13:08;;;;;;;;;;;;;;;3.98;98.10;99940.13;5031030;28;20416;-70
2022/04/08 02:15:34;;;;;;;;;;;;;;;3.86;97.47;99975.25;5028919;28;19924;-70
2022/04/08 02:18:00;;;;;;;;;;;;;;;3.79;97.45;99969.03;5029012;28;19976;-69
2022/04/08 02:20:26;;;;;;;;;;;;;;;3.66;98.39;99961.72;5030882;28;20368;-70
2022/04/08 02:22:51;;;;;;;;;;;;;;;3.56;98.49;99964.69;5029449;28;19921;-70
2022/04/08 02:25:17;;;;;;;;;;;;;;;3.47;99.35;99960.97;5030125;28;19936;-70
2022/04/08 02:27:43;;;;;;;;;;;;;;;3.39;98.54;99966.50;5026618;28;19917;-71
2022/04/08 02:30:09;;;;;;;;;;;;;;;3.29;97.40;99960.19;5025467;28;19974;-70
2022/04/08 02:32:34;;;;;;;;;;;;;;;3.19;98.15;99968.22;5032786;28;19920;-69
2022/04/08 02:34:59;;;;;;;;;;;;;;;3.14;98.81;99968.00;5036099;28;19968;-69
2022/04/08 02:37:24;;;;;;;;;;;;;;;3.10;99.84;99961.06;5032888;28;19932;-70
2022/04/08 02:39:52;;;;;;;;;;;;;;;3.03;98.06;99959.03;5030606;28;19921;-70
2022/04/08 02:42:17;;;;;;;;;;;;;;;2.96;97.83;99957.03;5032724;28;21260;-69
2022/04/08 02:44:42;;;;;;;;;;;;;;;2.85;99.28;99965.84;5032060;28;19917;-70
2022/04/08 02:47:08;;;;;;;;;;;;;;;2.78;99.81;99963.84;5033337;28;19975;-71
2022/04/08 02:49:33;;;;;;;;;;;;;;;2.71;100.00;99964.38;5014203;28;19928;-70
2022/04/08 02:51:58;;;;;;;;;;;;;;;2.68;100.00;99963.47;5029713;28;19954;-70
2022/04/08 02:54:24;;;;;;;;;;;;;;;2.70;99.69;99963.53;5036040;28;20027;-70
2022/04/08 02:56:49;;;;;;;;;;;;;;;2.65;100.00;99962.44;5035758;28;19921;-70
2022/04/08 02:59:14;;;;;;;;;;;;;;;2.57;99.75;99964.63;5034882;28;19952;-69
2022/04/08 03:01:39;;;;;;;;;;;;;;;2.51;100.00;99963.50;5029714;28;19929;-71
2022/04/08 03:04:06;;;;;;;;;;;;;;;2.46;100.00;99970.00;5012659;28;19921;-70
2022/04/08 03:06:31;;;;;;;;;;;;;;;2.43;100.00;99963.16;5033733;28;19924;-70
2022/04/08 03:08:57;;;;;;;;;;;;;;;2.41;100.00;99970.66;5036359;28;19975;-69
2022/04/08 03:11:22;;;;;;;;;;;;;;;2.37;100.00;99973.88;5033759;28;19929;-70
2022/04/08 03:13:47;;;;;;;;;;;;;;;2.32;100.00;99974.47;5031192;28;19921;-70
2022/04/08 03:16:13;;;;;;;;;;;;;;;2.25;99.73;99980.06;5030262;28;19921;-70
2022/04/08 03:18:38;;;;;;;;;;;;;;;2.20;100.00;99973.88;5034443;28;19928;-69
2022/04/08 03:21:03;;;;;;;;;;;;;;;2.15;100.00;99977.06;5031699;28;19917;-70
2022/04/08 03:23:28;;;;;;;;;;;;;;;2.15;100.00;99986.34;5031065;28;19937;-69
2022/04/08 03:25:54;;;;;;;;;;;;;;;2.18;100.00;99985.59;5031225;28;19921;-70
2022/04/08 03:28:20;;;;;;;;;;;;;;;2.18;99.32;99988.16;5030455;28;19921;-69
2022/04/08 03:30:46;;;;;;;;;;;;;;;2.16;100.00;99990.63;5031905;28;20087;-71
2022/04/08 03:33:11;;;;;;;;;;;;;;;2.14;99.96;99989.69;5033544;28;19978;-70
2022/04/08 03:35:36;;;;;;;;;;;;;;;2.10;99.97;99996.25;5028680;28;19933;-70
2022/04/08 03:38:02;;;;;;;;;;;;;;;2.09;100.00;99999.59;5031537;28;20826;-69
2022/04/08 03:40:27;;;;;;;;;;;;;;;2.12;100.00;99998.88;5033183;28;19959;-70
2022/04/08 03:42:53;;;;;;;;;;;;;;;2.11;100.00;100003.06;5033227;28;20397;-69
2022/04/08 03:45:18;;;;;;;;;;;;;;;2.14;100.00;100003.22;5056542;28;20016;-70
2022/04/08 03:47:43;;;;;;;;;;;;;;;2.13;100.00;100010.78;5029864;28;19921;-70
2022/04/08 03:50:09;;;;;;;;;;;;;;;2.08;100.00;100013.09;5035048;28;19920;-71
2022/04/08 03:52:34;;;;;;;;;;;;;;;2.06;100.00;100009.63;5031863;28;19935;-69
2022/04/08 03:55:00;;;;;;;;;;;;;;;2.04;100.00;100015.38;5045258;28;19922;-71
2022/04/08 03:57:25;;;;;;;;;;;;;;;2.03;100.00;100011.13;5026078;28;19922;-71
2022/04/08 03:59:51;;;;;;;;;;;;;;;2.01;100.00;100021.19;5032745;28;19921;-69
2022/04/08 04:02:16;;;;;;;;;;;;;;;2.00;100.00;100013.50;5032477;28;19925;-69
2022/04/08 04:04:41;;;;;;;;;;;;;;;2.00;100.00;100018.56;5033286;28;19921;-70
2022/04/08 04:07:07;;;;;;;;;;;;;;;1.99;100.00;100012.63;5018716;28;19921;-69
2022/04/08 04:09:32;;;;;;;;;;;;;;;1.94;100.00;100013.19;5030862;28;19975;-70
2022/04/08 04:11:57;;;;;;;;;;;;;;;1.95;100.00;100013.28;5035309;28;19924;-70
2022/04/08 04:14:22;;;;;;;;;;;;;;;1.87;100.00;100007.81;5031256;28;20336;-70
2022/04/08 04:16:48;;;;;;;;;;;;;;;1.84;100.00;100006.81;5031918;28;19921;-69
2022/04/08 04:19:13;;;;;;;;;;;;;;;1.78;100.00;100009.06;5031087;28;20012;-69
2022/04/08 04:21:38;;;;;;;;;;;;;;;1.79;100.00;100004.06;5034407;28;20036;-69
2022/04/08 04:24:04;;;;;;;;;;;;;;;1.76;99.92;100000.50;5031396;28;19924;-69
2022/04/08 04:26:29;;;;;;;;;;;;;;;1.67;100.00;100000.06;5030702;28;19967;-70
2022/04/08 04:28:54;;;;;;;;;;;;;;;1.62;100.00;100009.94;5031482;28;20016;-69
2022/04/08 04:31:20;;;;;;;;;;;;;;;1.63;100.00;100006.63;5029202;28;19948;-70
2022/04/08 04:33:45;;;;;;;;;;;;;;;1.60;100.00;100007.34;5038590;28;19928;-69
2022/04/08 04:36:13;;;;;;;;;;;;;;;1.61;100.00;100009.09;5043423;28;20384;-69
2022/04/08 04:38:38;;;;;;;;;;;;;;;1.57;100.00;100011.38;5029010;28;20539;-70
2022/04/08 04:41:04;;;;;;;;;;;;;;;1.56;100.00;100019.78;5034119;28;19961;-70
2022/04/08 04:43:29;;;;;;;;;;;;;;;1.54;100.00;100006.19;5029754;28;19929;-69
2022/04/08 04:45:55;;;;;;;;;;;;;;;1.55;100.00;100020.59;5030734;28;19990;-70
2022/04/08 04:48:22;;;;;;;;;;;;;;;1.52;100.00;100018.78;5017390;28;19928;-70
2022/04/08 04:50:48;;;;;;;;;;;;;;;1.50;100.00;100015.28;5026780;28;19925;-69
2022/04/08 04:53:13;;;;;;;;;;;;;;;1.53;100.00;100014.56;5014249;28;19948;-69
2022/04/08 04:55:38;;;;;;;;;;;;;;;1.51;100.00;100021.22;5032162;28;19986;-69
2022/04/08 04:58:03;;;;;;;;;;;;;;;1.48;100.00;100013.47;5029918;28;19917;-70
2022/04/08 05:00:29;;;;;;;;;;;;;;;1.47;100.00;100025.28;5026514;28;19975;-70
2022/04/08 05:02:54;;;;;;;;;;;;;;;1.49;100.00;100022.81;5031072;28;20340;-69
2022/04/08 05:05:19;;;;;;;;;;;;;;;1.49;100.00;100013.53;5004531;28;20370;-69
2022/04/08 05:07:45;;;;;;;;;;;;;;;1.51;100.00;100017.00;5027005;28;19925;-69
2022/04/08 05:10:10;;;;;;;;;;;;;;;1.51;100.00;100014.47;5028598;28;20051;-70
2022/04/08 05:12:35;;;;;;;;;;;;;;;1.46;100.00;100013.41;5039150;28;19920;-69
2022/04/08 05:15:01;;;;;;;;;;;;;;;1.46;100.00;100018.47;5030107;28;19929;-69
2022/04/08 05:17:28;;;;;;;;;;;;;;;1.47;100.00;100020.19;5032115;28;20023;-70
2022/04/08 05:19:54;;;;;;;;;;;;;;;1.54;100.00;100021.38;5030448;28;19935;-69
2022/04/08 05:22:19;;;;;;;;;;;;;;;1.61;100.00;100020.88;5033172;28;19929;-70
2022/04/08 05:24:45;;;;;;;;;;;;;;;1.71;100.00;100020.56;5030155;28;19960;-69
2022/04/08 05:27:10;;;;;;;;;;;;;;;1.79;100.00;100015.88;5031855;28;19928;-70
2022/04/08 05:29:36;;;;;;;;;;;;;;;2.06;100.00;100019.75;5029286;28;19967;-69
2022/04/08 05:34:31;;;;;;;;;;;;;;;2.85;100.00;100004.84;5070180;28;19924;-78
2022/04/08 05:36:56;;;;;;;;;;;;;;;3.33;100.00;100010.31;5063315;28;19983;-79
2022/04/08 05:39:21;;;;;;;;;;;;;;;3.82;100.00;99994.56;5057493;28;20406;-78
2022/04/08 05:41:47;;;;;;;;;;;;;;;4.26;100.00;99990.44;5067071;28;19924;-78
2022/04/08 05:44:12;;;;;;;;;;;;;;;4.74;99.26;99988.03;5071806;28;19928;-78
2022/04/08 05:46:37;;;;;;;;;;;;;;;4.86;97.90;99988.47;5066237;28;20045;-78
2022/04/08 05:49:03;;;;;;;;;;;;;;;4.73;95.99;99987.16;5083638;28;19949;-78
2022/04/08 05:51:28;;;;;;;;;;;;;;;4.55;95.50;99988.97;5066398;28;20011;-79
2022/04/08 05:53:53;;;;;;;;;;;;;;;4.47;96.12;99980.19;5059946;28;20269;-78
2022/04/08 05:56:18;;;;;;;;;;;;;;;4.35;94.78;99977.19;5060390;28;19963;-78
2022/04/08 05:58:44;;;;;;;;;;;;;;;4.33;96.36;99979.66;5064027;28;19935;-78
2022/04/08 06:01:10;;;;;;;;;;;;;;;4.29;95.04;99987.97;5066727;28;20363;-79
2022/04/08 06:03:36;;;;;;;;;;;;;;;4.35;95.48;99987.34;5066945;28;19920;-79
2022/04/08 06:06:01;;;;;;;;;;;;;;;4.46;96.13;99974.25;5066815;28;19913;-78
2022/04/08 06:09:01;;;;;;;;;;;;;;;4.67;95.32;99980.94;5070285;28;20391;-78
2022/04/08 06:11:26;;;;;;;;;;;;;;;4.98;94.33;99977.88;5062052;28;19931;-78
2022/04/08 06:13:51;;;;;;;;;;;;;;;5.15;91.78;99984.41;5067361;28;19928;-79
2022/04/08 06:16:19;;;;;;;;;;;;;;;5.45;92.57;99981.19;5073041;28;19924;-77
2022/04/08 06:18:44;;;;;;;;;;;;;;;5.99;92.59;99973.69;5062466;28;19921;-76
2022/04/08 06:21:09;;;;;;;;;;;;;;;6.93;90.50;99980.81;5066194;28;20069;-78
2022/04/08 06:23:34;;;;;;;;;;;;;;;7.87;87.68;99974.78;5070412;28;20020;-77
2022/04/08 06:26:00;;;;;;;;;;;;;;;8.57;87.35;99979.03;5067478;28;19939;-77
2022/04/08 06:28:25;;;;;;;;;;;;;;;8.98;86.04;99985.84;5066166;28;19928;-78
2022/04/08 06:30:50;;;;;;;;;;;;;;;9.43;81.53;99987.59;5060809;28;19974;-77
2022/04/08 06:33:16;;;;;;;;;;;;;;;10.00;83.01;99987.72;5063277;28;19978;-76
2022/04/08 06:35:41;;;;;;;;;;;;;;;10.77;80.41;99979.47;5069509;28;20333;-77
2022/04/08 06:38:07;;;;;;;;;;;;;;;11.60;74.16;99970.13;5071406;28;19963;-77
2022/04/08 06:40:35;;;;;;;;;;;;;;;12.27;75.09;99961.28;5093953;22;19928;-73
2022/04/08 06:43:01;;;;;;;;;;;;;;;12.53;67.07;99958.00;5084612;28;19924;-72
2022/04/08 06:45:26;;;;;;;;;;;;;;;12.03;66.97;99949.06;5082994;28;19966;-72
2022/04/08 06:47:52;;;;;;;;;;;;;;;11.88;71.79;99956.66;5085017;28;20284;-72
2022/04/08 06:50:18;;;;;;;;;;;;;;;12.05;70.57;99949.06;5085868;28;20327;-72
2022/04/08 06:52:43;;;;;;;;;;;;;;;12.32;71.50;99951.00;5085022;28;19916;-71
2022/04/08 06:55:09;;;;;;;;;;;;;;;12.30;68.71;99948.38;5086540;28;19935;-71
2022/04/08 06:57:34;;;;;;;;;;;;;;;11.69;68.85;99945.31;5086558;28;19917;-72
2022/04/08 07:00:00;;;;;;;;;;;;;;;11.01;69.88;99948.06;5087561;28;19916;-71
2022/04/08 07:02:25;;;;;;;;;;;;;;;10.50;70.16;99956.84;5087936;28;19962;-71
2022/04/08 07:04:51;;;;;;;;;;;;;;;9.93;70.35;99955.09;5088367;28;20364;-72
2022/04/08 07:07:16;;;;;;;;;;;;;;;9.34;69.93;99957.47;5084143;28;19954;-73
2022/04/08 07:09:41;;;;;;;;;;;;;;;9.02;72.52;99964.56;5104992;28;19955;-71
2022/04/08 07:12:07;;;;;;;;;;;;;;;8.85;72.89;99966.78;5084674;28;20360;-72
2022/04/08 07:14:32;;;;;;;;;;;;;;;8.83;73.89;99953.06;5084837;28;19924;-72
2022/04/08 07:16:57;;;;;;;;;;;;;;;8.81;73.42;99955.63;5089703;28;20010;-72
2022/04/08 07:19:22;;;;;;;;;;;;;;;8.74;73.46;99952.91;5085919;28;20272;-72
2022/04/08 07:21:48;;;;;;;;;;;;;;;8.62;72.58;99955.19;5089159;28;21067;-72
2022/04/08 07:24:13;;;;;;;;;;;;;;;8.49;74.51;99951.47;5091552;28;19935;-71
2022/04/08 07:26:38;;;;;;;;;;;;;;;8.54;73.35;99943.06;5085651;28;20291;-71
2022/04/08 07:29:03;;;;;;;;;;;;;;;8.49;75.03;99947.25;5086626;28;20364;-71
2022/04/08 07:31:29;;;;;;;;;;;;;;;8.52;74.38;99943.88;5088282;28;19959;-71
2022/04/08 07:33:54;;;;;;;;;;;;;;;8.56;74.98;99948.25;5080261;28;19916;-72
2022/04/08 07:36:19;;;;;;;;;;;;;;;8.61;74.81;99946.63;5095105;28;19923;-71
2022/04/08 07:38:45;;;;;;;;;;;;;;;8.72;74.07;99954.53;5087424;28;19927;-72
2022/04/08 07:41:10;;;;;;;;;;;;;;;8.82;74.36;99947.09;5089829;28;19928;-71
2022/04/08 07:43:35;;;;;;;;;;;;;;;8.90;73.59;99949.78;5086605;28;20050;-71
2022/04/08 07:46:00;;;;;;;;;;;;;;;8.94;73.56;99946.47;5087685;28;20368;-71
2022/04/08 07:48:27;;;;;;;;;;;;;;;9.03;74.57;99945.78;5084836;28;19938;-72
2022/04/08 07:50:52;;;;;;;;;;;;;;;9.16;72.26;99939.19;5086855;28;19920;-73
2022/04/08 07:53:18;;;;;;;;;;;;;;;9.06;71.16;99933.88;5088244;28;19931;-72
2022/04/08 07:55:43;;;;;;;;;;;;;;;8.99;72.02;99937.16;5087327;28;19997;-72
2022/04/08 07:58:08;;;;;;;;;;;;;;;8.99;72.56;99931.19;5090176;28;19985;-72
2022/04/08 08:00:34;;;;;;;;;;;;;;;8.98;71.45;99940.56;5083115;28;20022;-72
2022/04/08 08:02:59;;;;;;;;;;;;;;;8.96;71.80;99936.22;5070684;28;20014;-72
2022/04/08 08:05:25;;;;;;;;;;;;;;;8.91;71.14;99936.13;5084265;28;19923;-71
2022/04/08 08:07:52;;;;;;;;;;;;;;;8.92;70.85;99939.56;5086964;28;19969;-71
2022/04/08 08:10:18;;;;;;;;;;;;;;;8.95;73.15;99937.06;5083166;28;19989;-74
2022/04/08 08:12:43;;;;;;;;;;;;;;;9.03;73.35;99938.06;5084682;28;19923;-73
2022/04/08 08:15:09;;;;;;;;;;;;;;;9.09;73.44;99928.78;5088554;28;20445;-72
2022/04/08 08:17:34;;;;;;;;;;;;;;;9.13;72.93;99924.59;5088634;28;20430;-71
2022/04/08 08:20:00;;;;;;;;;;;;;;;9.17;72.33;99928.97;5086333;28;19955;-72
2022/04/08 08:22:25;;;;;;;;;;;;;;;9.16;70.66;99931.47;5088480;28;21617;-71
2022/04/08 08:24:51;;;;;;;;;;;;;;;9.18;69.00;99928.13;5089067;28;20000;-72
2022/04/08 08:27:16;;;;;;;;;;;;;;;9.18;71.03;99930.69;5086025;28;19919;-73
2022/04/08 08:29:41;;;;;;;;;;;;;;;9.27;71.88;99933.41;5087376;28;19973;-72
2022/04/08 08:32:07;;;;;;;;;;;;;;;9.46;71.31;99926.91;5092229;28;19916;-71
2022/04/08 08:34:32;;;;;;;;;;;;;;;9.69;69.44;99922.16;5087848;28;19920;-73
2022/04/08 08:36:59;;;;;;;;;;;;;;;9.86;70.38;99919.88;5091775;28;19916;-71
2022/04/08 08:39:25;;;;;;;;;;;;;;;10.07;69.28;99922.78;5084132;28;20273;-72
2022/04/08 08:41:51;;;;;;;;;;;;;;;10.20;68.45;99906.72;5089582;28;19923;-71
2022/04/08 08:44:19;;;;;;;;;;;;;;;10.14;66.76;99911.75;5087729;28;19924;-71
2022/04/08 08:46:44;;;;;;;;;;;;;;;10.18;67.46;99900.66;5086498;28;20508;-70
2022/04/08 08:49:11;;;;;;;;;;;;;;;10.24;68.00;99893.94;5081534;28;19916;-71
2022/04/08 08:51:38;;;;;;;;;;;;;;;10.35;67.61;99892.38;5084104;28;19916;-71
2022/04/08 08:54:03;;;;;;;;;;;;;;;10.51;67.58;99899.44;5086343;28;19922;-71
2022/04/08 08:56:29;;;;;;;;;;;;;;;10.63;66.33;99886.75;5079596;28;19920;-71
2022/04/08 08:58:54;;;;;;;;;;;;;;;10.64;65.54;99879.91;5085417;28;19928;-71
2022/04/08 09:01:19;;;;;;;;;;;;;;;10.65;64.32;99879.91;5086984;28;20015;-72
2022/04/08 09:03:44;;;;;;;;;;;;;;;10.82;62.60;99876.69;5085139;28;19916;-72
2022/04/08 09:06:10;;;;;;;;;;;;;;;10.93;66.12;99873.38;5069134;28;19916;-72
2022/04/08 09:08:35;;;;;;;;;;;;;;;11.00;63.95;99874.31;5085214;28;19920;-72
2022/04/08 09:11:01;;;;;;;;;;;;;;;10.96;63.39;99859.69;5085678;28;20292;-72
2022/04/08 09:13:28;;;;;;;;;;;;;;;10.86;60.51;99871.59;5084389;28;20388;-72
2022/04/08 09:15:58;;;;;;;;;;;;;;;10.82;64.17;99874.97;5087867;28;19946;-72
2022/04/08 09:18:29;;;;;;;;;;;;;;;10.89;62.76;99866.47;5088415;28;19912;-72
2022/04/08 09:20:55;;;;;;;;;;;;;;;11.04;63.62;99865.75;5084954;28;20486;-73
2022/04/08 09:23:21;;;;;;;;;;;;;;;11.17;61.95;99867.63;5080955;28;19925;-72
2022/04/08 09:25:48;;;;;;;;;;;;;;;11.26;63.31;99867.69;5085934;28;20494;-72
2022/04/08 09:28:15;;;;;;;;;;;;;;;11.39;62.52;99872.94;5085030;28;20284;-72
2022/04/08 09:33:47;;;;;;;;;;;;;;;11.10;58.81;99865.84;5088032;28;20299;-72
2022/04/08 09:36:12;;;;;;;;;;;;;;;10.94;58.86;99861.38;5083813;28;20436;-72
2022/04/08 09:38:47;;;;;;;;;;;;;;;10.93;61.39;99857.09;5083805;28;20043;-72
2022/04/08 09:41:13;;;;;;;;;;;;;;;10.82;60.76;99867.25;5081592;28;20380;-72
2022/04/08 09:43:39;;;;;;;;;;;;;;;10.72;62.40;99865.41;5080588;28;19916;-72
2022/04/08 09:46:11;;;;;;;;;;;;;;;10.76;60.15;99861.19;5081090;28;20369;-72
2022/04/08 09:48:37;;;;;;;;;;;;;;;10.68;61.04;99858.53;5085612;28;19919;-72
2022/04/08 09:51:02;;;;;;;;;;;;;;;10.53;62.04;99859.19;5082253;28;20381;-73
2022/04/08 09:53:28;;;;;;;;;;;;;;;10.33;61.62;99869.22;5085415;28;19920;-72
2022/04/08 09:55:53;;;;;;;;;;;;;;;10.33;62.58;99858.09;5084568;28;19920;-72
2022/04/08 09:58:20;;;;;;;;;;;;;;;10.43;62.30;99863.38;5086448;28;19951;-72
2022/04/08 10:00:46;;;;;;;;;;;;;;;10.40;61.57;99860.75;5086342;28;19912;-71
2022/04/08 10:03:12;;;;;;;;;;;;;;;10.30;60.86;99863.19;5086499;28;19943;-72
2022/04/08 10:05:37;;;;;;;;;;;;;;;10.18;61.47;99859.56;5082561;28;19939;-72
2022/04/08 10:08:05;;;;;;;;;;;;;;;10.18;62.61;99859.56;5084961;28;19965;-74
2022/04/08 10:10:40;;;;;;;;;;;;;;;10.17;62.04;99859.56;5082374;28;19920;-74
2022/04/08 10:13:21;;;;;;;;;;;;;;;10.39;62.62;99853.03;5084533;28;20309;-73
2022/04/08 10:16:25;;;;;;;;;;;;;;;10.46;61.16;99859.97;5082036;28;19968;-73
2022/04/08 10:18:52;;;;;;;;;;;;;;;10.73;61.40;99857.72;5020460;28;19964;-72
2022/04/08 10:21:17;;;;;;;;;;;;;;;10.74;59.82;99859.47;5019998;28;19963;-72
2022/04/08 10:23:50;;;;;;;;;;;;;;;10.66;59.50;99855.91;5051873;28;20308;-73
2022/04/08 10:26:17;;;;;;;;;;;;;;;10.58;58.09;99854.97;5087499;28;19916;-73
2022/04/08 10:28:42;;;;;;;;;;;;;;;10.59;60.08;99855.84;5084239;28;19943;-73
2022/04/08 10:31:14;;;;;;;;;;;;;;;10.73;61.89;99850.00;5084773;28;19947;-73
2022/04/08 10:33:45;;;;;;;;;;;;;;;10.72;60.53;99861.13;5085660;28;19941;-74
2022/04/08 10:36:10;;;;;;;;;;;;;;;10.64;60.22;99849.91;5085867;28;20402;-73
2022/04/08 10:38:36;;;;;;;;;;;;;;;10.69;60.61;99844.81;5086796;28;19912;-73
2022/04/08 10:41:02;;;;;;;;;;;;;;;10.57;57.60;99845.53;5083605;28;20388;-73
2022/04/08 10:43:27;;;;;;;;;;;;;;;10.35;57.31;99846.13;5085680;28;19920;-73
2022/04/08 10:45:56;;;;;;;;;;;;;;;10.06;58.85;99843.97;5085608;28;19955;-70
2022/04/08 10:48:21;;;;;;;;;;;;;;;10.06;61.48;99843.97;5083955;28;19970;-72
2022/04/08 10:50:46;;;;;;;;;;;;;;;10.16;60.45;99845.84;5084247;28;19920;-72
2022/04/08 10:53:13;;;;;;;;;;;;;;;10.32;59.75;99851.22;5067566;28;19924;-72
2022/04/08 10:55:49;;;;;;;;;;;;;;;10.29;58.51;99846.03;5085424;28;19931;-72
2022/04/08 10:58:15;;;;;;;;;;;;;;;10.39;62.15;99853.03;5089892;28;20260;-72
2022/04/08 11:00:41;;;;;;;;;;;;;;;10.58;60.28;99842.13;5085477;28;20324;-73
2022/04/08 11:03:07;;;;;;;;;;;;;;;10.69;58.27;99843.13;5089598;28;19912;-73
2022/04/08 11:05:38;;;;;;;;;;;;;;;10.77;60.16;99842.34;5086087;28;19920;-73
2022/04/08 11:08:03;;;;;;;;;;;;;;;10.87;59.52;99841.59;5084999;28;19916;-73
2022/04/08 11:10:31;;;;;;;;;;;;;;;10.92;61.26;99845.03;5081672;28;19936;-72
2022/04/08 11:12:57;;;;;;;;;;;;;;;10.87;60.94;99833.88;5089016;28;20150;-72
2022/04/08 11:15:23;;;;;;;;;;;;;;;10.74;58.37;99815.75;5090063;28;19916;-72
2022/04/08 11:17:49;;;;;;;;;;;;;;;10.44;56.62;99817.97;5086792;28;19925;-73
2022/04/08 11:20:15;;;;;;;;;;;;;;;10.35;58.88;99817.84;5081939;28;19923;-72
2022/04/08 11:22:41;;;;;;;;;;;;;;;10.34;60.30;99828.97;5087748;28;19954;-71
2022/04/08 11:25:08;;;;;;;;;;;;;;;10.46;61.63;99834.28;5087585;28;19947;-72
2022/04/08 11:27:33;;;;;;;;;;;;;;;10.60;59.88;99817.28;5086724;28;20410;-72
2022/04/08 11:29:58;;;;;;;;;;;;;;;10.72;59.94;99814.00;5070545;28;19920;-72
2022/04/08 11:32:28;;;;;;;;;;;;;;;10.87;61.07;99814.16;5083825;28;19917;-73
2022/04/08 11:34:55;;;;;;;;;;;;;;;11.07;57.41;99809.19;5085470;28;19920;-73
2022/04/08 11:37:27;;;;;;;;;;;;;;;10.98;57.87;99799.69;5086001;28;19931;-72
2022/04/08 11:39:58;;;;;;;;;;;;;;;10.92;58.65;99798.75;5086119;28;20015;-72
2022/04/08 11:42:25;;;;;;;;;;;;;;;10.80;58.58;99778.94;5082435;28;19946;-72
2022/04/08 11:44:50;;;;;;;;;;;;;;;10.62;57.61;99771.91;5087511;28;19926;-72
2022/04/08 11:47:17;;;;;;;;;;;;;;;10.38;58.93;99767.38;5085277;28;19920;-71
2022/04/08 11:49:42;;;;;;;;;;;;;;;10.29;59.63;99771.53;5083971;28;19920;-72
2022/04/08 11:52:09;;;;;;;;;;;;;;;10.30;60.57;99775.81;5083194;28;19970;-71
2022/04/08 11:54:35;;;;;;;;;;;;;;;10.56;60.69;99765.84;5085303;28;19927;-72
2022/04/08 11:57:01;;;;;;;;;;;;;;;10.94;59.08;99759.34;5084257;28;20353;-71
2022/04/08 11:59:27;;;;;;;;;;;;;;;11.31;58.27;99767.38;5086672;28;19935;-71
2022/04/08 12:01:57;;;;;;;;;;;;;;;11.54;59.91;99764.97;5087637;28;20398;-71
2022/04/08 12:04:22;;;;;;;;;;;;;;;11.62;56.87;99765.88;5083570;28;19916;-70
2022/04/08 12:06:48;;;;;;;;;;;;;;;11.46;53.08;99764.03;5085656;28;19991;-72
2022/04/08 12:09:15;;;;;;;;;;;;;;;11.20;56.21;99763.84;5084496;28;19923;-71
2022/04/08 12:11:42;;;;;;;;;;;;;;;11.00;55.70;99759.41;5086915;28;20376;-72
2022/04/08 12:14:08;;;;;;;;;;;;;;;11.00;56.57;99755.97;5083545;28;19920;-71
2022/04/08 12:16:34;;;;;;;;;;;;;;;11.14;57.95;99751.81;5087293;28;20384;-72
2022/04/08 12:19:00;;;;;;;;;;;;;;;11.25;58.35;99754.47;5084721;28;19927;-71
2022/04/08 12:21:27;;;;;;;;;;;;;;;11.40;56.40;99751.13;5084348;28;19930;-71
2022/04/08 12:23:53;;;;;;;;;;;;;;;11.49;55.62;99746.91;5087436;28;19916;-70
2022/04/08 12:26:19;;;;;;;;;;;;;;;11.65;55.72;99747.00;5083762;28;19924;-71
2022/04/08 12:28:45;;;;;;;;;;;;;;;11.70;55.89;99759.03;5086360;28;19923;-71
2022/04/08 12:31:14;;;;;;;;;;;;;;;11.68;53.56;99749.59;5085390;28;19924;-71
2022/04/08 12:33:39;;;;;;;;;;;;;;;11.66;56.22;99759.03;5101990;27;20435;-71
2022/04/08 12:36:07;;;;;;;;;;;;;;;11.76;56.50;99751.34;5082516;28;20068;-72
2022/04/08 12:38:32;;;;;;;;;;;;;;;11.71;55.12;99752.19;5088262;28;19916;-73
2022/04/08 12:40:58;;;;;;;;;;;;;;;11.68;55.97;99747.88;5083856;28;19931;-73
2022/04/08 12:43:23;;;;;;;;;;;;;;;11.71;56.59;99744.44;5086180;28;19920;-71
2022/04/08 12:45:49;;;;;;;;;;;;;;;11.79;54.71;99753.09;5084821;28;19976;-72
2022/04/08 12:48:14;;;;;;;;;;;;;;;11.70;53.00;99750.47;5084560;28;19928;-72
2022/04/08 12:50:39;;;;;;;;;;;;;;;11.53;55.93;99745.22;5084396;28;19920;-72